Broome International Airport

Airport
ICAO code: 
YBRM
IATA Code: 
BME
Summary
ICAO Region: 
APAC
Territory: 
Location: 
Broome, Western Australia
Serving: 
Broome
Elevation: 
56 ft
Coordinates: 
Aerial View: 
17° 57' 9.195" S, 122° 14' 1.577" E
Metar
Observation
YBRM 190130Z 17009KT 9999 BKN032 31/24 Q1007
Station
Broome Airport
Date/Time
2022-01-19 01:30:00
Wind direction
170°
Wind speed
09 kts
Lowest cloud amount
broken clouds
Temperature
31°C
Dew point
24°C
Humidity
66%
QNH
1007 hPa
Weather condition
n/a

Runways

Designator Length Width Surface Rops
10/28 2458 45 ASP Yes/Yes
Airport map: 
Aerial View: 

SKYbrary Partners:

Safety knowledge contributed by: